391  
UXUS97 KREV 181301  
SRGREV  
 
SOARING FORECAST  
NATIONAL WEATHER SERVICE - RENO NV  
700 AM PDT THU AUG 18 2022  
 
THIS SOARING FORECAST IS FOR THE EASTERN SIERRA AND WESTERN NEVADA  
WITH SPECIFIC INDICES FOR THE GREATER RENO AREA.  
 
THIS FORECAST IS PREPARED DAILY BY 700 AM AND IS NOT UPDATED.  
 
FOR CURRENT FLIGHT CONDITIONS...FORECASTS...AND ADVISORIES...ACCESS  
YOUR LOCAL BRIEFING OUTLET OR FLIGHT SERVICE STATION.  
 
*******************************************************************  
FORECASTED LOCAL INDICES FOR RENO: TODAY YESTERDAY  
FORECASTED MAX TEMP AT RENO (DEG F)..... 91 94  
FORECASTED TRIGGER TEMPERATURE (DEG F).. 75 84  
EXCEEDED YESTERDAY BY 1055 AM PDT  
FORECASTED MAXIMUM ALTITUDE (FT MSL).... 16300 18000  
FORECASTED SOARING INDEX (FPM).......... 969 1329  
FORECASTED K-INDEX.........VALID 18Z.... 34 29  
FORECASTED K-INDEX.........VALID 00Z.... 31 33  
FORECASTED LIFTED INDEX....VALID 18Z.... -2 -1  
FORECASTED LIFTED INDEX....VALID 00Z.... -1 -1  
 
AFTERNOON WINDS ALOFT FORECAST  
MSL (FT) WIND/TEMP  
9000 3013/+16  
10000 2913/+13  
12000 2912/+07  
14000 2712/+01  
16000 2712/-04  
18000 2713/-09  
24000 2721/-18  
30000 2529/-34  
34000 2529/-43  
39000 2438/-50  
 
SLIDE MOUNTAIN DATA:  
DATE TIME TEMP DEWPT RH WIND (MPH)  
(F) (F) | DIR SPEED GUST  
2022-08-18 05:20 49 43 76 | 123 13 20  
2022-08-18 05:00 49 43 74 | 127 14 21  
2022-08-18 04:50 50 43 70 | 128 14 21  
2022-08-18 04:30 50 43 68 | 145 12 20  
 
SIERRA CREST 8700 FT DATA:  
DATE TIME TEMP RH WIND  
DIR SPEED GUST  
2022-08-18 0515 53 66 161 0 0  
2022-08-18 0500 52 75 162 0 0  
2022-08-18 0445 51 82 161 0 0  
2022-08-18 0430 51 81 162 0 0  
 
RENO TAF FORECAST:  
KRNO 181126Z 1812/1912 34005KT P6SM FEW120  
FM182000 30010G20KT P6SM SCT080 BKN120 PROB30 1821/1901 P6SM  
TSRA BKN060CB  
FM190300 32006KT P6SM SCT150  
 
CARSON CITY TAF FORECAST:  
KCXP 181126Z 1812/1912 00000KT P6SM FEW110  
FM182100 27011G18KT P6SM SCT090 BKN120  
FM190300 VRB03KT P6SM FEW150  
 
MINDEN TAF FORECAST:  
KMEV 181126Z 1812/1912 10005KT P6SM FEW110  
FM182100 28011G20KT P6SM FEW090 SCT120  
FM190300 10005KT P6SM FEW150  
 
OUTLOOK FOR THE RENO-CARSON CITY-MINDEN AREA:   
FRIDAY
 
SUNNY. HIGHS 88 TO 93. LIGHT WINDS BECOMING NORTH  
AROUND 10 MPH IN THE AFTERNOON.  
 
SUNRISE AND SUNSET  
AUGUST 18 2022........SUNRISE 615 AM PDT SUNSET 751 PM PDT  
AUGUST 19 2022........SUNRISE 616 AM PDT SUNSET 749 PM PDT  
 
CLICK HERE TO GO TO PREVIOUS BULLETINS.

The Nexlab NV Page
The Nexlab CA Page Main Text Page